Carrier Mills, Illinois
Current Conditions -  °F | °C
As of 6:55 PM on Tuesday 21 Oct 2014 (Local Time) from KHSB Reporting Station
Clear Clear  
Wind Chill: 56°   Ceiling: Unl
Heat Index: 56°   Visibility: 10mi
Dew Point: 43°   Wind: 5mph
Humidity: 62%   Direction: 30°NNE
Pressure: 30.13"   Gusts: NA
Location:  37.68°N, 88.63°W
Report Text: KHSB 212355Z AUTO 03004KT 10SM CLR 14/06 A3013 RMK AO2 T01350063 10192 20135
Loading
Personal Weather Stations






























Interactive Weather Map
Tropical Storm Tracking
New forecast layout! Learn more

10-Day Weather Forecast

Advertisements
Track Severe Weather on mobile